createdAt,value
2023-01-28T00:00:00.681Z,65.46
2023-01-28T00:03:03.998Z,65.47
2023-01-28T00:06:13.732Z,65.52
2023-01-28T00:09:17.114Z,65.44
2023-01-28T00:12:20.361Z,65.56
2023-01-28T00:15:25.518Z,65.62
2023-01-28T00:18:29.825Z,65.51
2023-01-28T00:21:33.096Z,65.49
2023-01-28T00:24:36.375Z,65.51
2023-01-28T00:27:39.762Z,65.55
2023-01-28T00:30:43.016Z,65.53
2023-01-28T00:33:47.992Z,65.68
2023-01-28T00:36:57.944Z,65.60
2023-01-28T00:40:01.146Z,65.63
2023-01-28T00:43:05.156Z,65.70
2023-01-28T00:46:10.131Z,65.63
2023-01-28T00:49:13.379Z,65.59
2023-01-28T00:52:17.520Z,65.59
2023-01-28T00:55:21.608Z,65.54
2023-01-28T00:58:24.816Z,65.63
2023-01-28T01:01:28.304Z,65.61
2023-01-28T01:04:35.451Z,65.56
2023-01-28T01:07:42.727Z,65.63
2023-01-28T01:10:45.995Z,65.68
2023-01-28T01:13:56.933Z,65.60
2023-01-28T01:17:00.829Z,65.72
2023-01-28T01:20:06.150Z,65.59
2023-01-28T01:23:10.039Z,65.60
2023-01-28T01:26:13.943Z,65.60
2023-01-28T01:29:17.156Z,65.52
2023-01-28T01:32:20.540Z,65.59
2023-01-28T01:35:23.940Z,65.43
2023-01-28T01:38:28.831Z,65.47
2023-01-28T01:41:33.265Z,65.45
2023-01-28T01:45:03.893Z,65.27
2023-01-28T01:48:16.898Z,65.22
2023-01-28T01:51:25.827Z,65.26
2023-01-28T01:54:32.070Z,65.04
2023-01-28T01:57:37.011Z,64.97
2023-01-28T02:00:42.024Z,64.91
2023-01-28T02:03:57.583Z,64.66
2023-01-28T02:07:02.182Z,64.55
2023-01-28T02:10:07.950Z,64.40
2023-01-28T02:13:11.405Z,64.33
2023-01-28T02:16:15.043Z,64.27
2023-01-28T02:19:20.178Z,64.11
2023-01-28T02:22:44.477Z,63.99
2023-01-28T02:25:53.770Z,63.92
2023-01-28T02:29:25.751Z,63.83
2023-01-28T02:33:00.925Z,63.78
2023-01-28T02:36:37.900Z,63.77
2023-01-28T02:39:48.451Z,63.67
2023-01-28T02:42:51.717Z,63.54
2023-01-28T02:46:13.402Z,63.42
2023-01-28T02:49:30.909Z,63.30
2023-01-28T02:52:58.724Z,63.17
2023-01-28T02:56:14.071Z,63.11
2023-01-28T02:59:32.124Z,63.02
2023-01-28T03:02:54.750Z,62.95
2023-01-28T03:06:05.288Z,62.77
2023-01-28T03:09:25.793Z,62.74
2023-01-28T03:12:50.415Z,62.71
2023-01-28T03:16:12.234Z,62.66
2023-01-28T03:19:36.495Z,62.52
2023-01-28T03:23:02.878Z,62.50
2023-01-28T03:26:27.483Z,62.36
2023-01-28T03:29:50.669Z,62.30
2023-01-28T03:33:14.064Z,62.42
2023-01-28T03:36:35.827Z,62.35
2023-01-28T03:39:39.465Z,62.33
2023-01-28T03:42:44.672Z,62.18
2023-01-28T03:46:08.200Z,62.23
2023-01-28T03:49:11.418Z,62.14
2023-01-28T03:52:15.772Z,61.98
2023-01-28T03:55:19.320Z,61.99
2023-01-28T03:58:27.250Z,61.99
2023-01-28T04:01:30.911Z,61.79
2023-01-28T04:04:34.481Z,61.64
2023-01-28T04:07:38.348Z,61.79
2023-01-28T04:11:15.667Z,61.57
2023-01-28T04:14:21.226Z,61.73
2023-01-28T04:17:28.380Z,61.53
2023-01-28T04:20:33.299Z,61.47
2023-01-28T04:23:37.372Z,61.51
2023-01-28T04:26:40.715Z,61.45
2023-01-28T04:29:44.668Z,61.40
2023-01-28T04:33:14.505Z,61.35
2023-01-28T04:36:25.148Z,61.32
2023-01-28T04:39:58.641Z,61.45
2023-01-28T04:43:18.118Z,61.33
2023-01-28T04:46:25.847Z,61.39
2023-01-28T04:49:38.779Z,61.36
2023-01-28T04:53:14.202Z,61.39
2023-01-28T04:56:29.527Z,61.33
2023-01-28T04:59:32.847Z,61.25
2023-01-28T05:02:36.308Z,61.35
2023-01-28T05:05:39.656Z,61.44
2023-01-28T05:08:55.511Z,61.30
2023-01-28T05:11:58.964Z,61.26
2023-01-28T05:15:02.245Z,61.31
2023-01-28T05:18:05.708Z,61.28
2023-01-28T05:21:15.714Z,61.33
2023-01-28T05:24:21.645Z,61.23
2023-01-28T05:27:25.162Z,61.13
2023-01-28T05:30:30.009Z,61.07
2023-01-28T05:33:33.533Z,61.16
2023-01-28T05:36:37.172Z,61.14
2023-01-28T05:39:52.448Z,61.05
2023-01-28T05:42:55.700Z,61.07
2023-01-28T05:46:06.222Z,61.01
2023-01-28T05:49:32.066Z,61.05
2023-01-28T05:52:48.691Z,61.04
2023-01-28T05:56:02.625Z,60.89
2023-01-28T05:59:07.579Z,60.82
2023-01-28T06:02:10.891Z,60.75
2023-01-28T06:05:14.559Z,60.87
2023-01-28T06:08:17.905Z,60.88
2023-01-28T06:11:21.248Z,60.82
2023-01-28T06:14:26.009Z,60.68
2023-01-28T06:18:04.886Z,60.66
2023-01-28T06:21:11.372Z,60.61
2023-01-28T06:24:14.760Z,60.65
2023-01-28T06:27:18.204Z,60.52
2023-01-28T06:30:21.446Z,60.50
2023-01-28T06:33:24.758Z,60.49
2023-01-28T06:36:27.987Z,60.44
2023-01-28T06:39:34.409Z,60.52
2023-01-28T06:42:37.651Z,60.62
2023-01-28T06:45:40.868Z,60.67
2023-01-28T06:48:44.066Z,60.56
2023-01-28T06:51:47.303Z,60.58
2023-01-28T06:54:50.512Z,60.43
2023-01-28T06:57:53.737Z,60.53
2023-01-28T07:00:56.923Z,60.43
2023-01-28T07:04:00.319Z,60.52
2023-01-28T07:07:04.026Z,60.46
2023-01-28T07:10:07.828Z,61.93
2023-01-28T07:13:11.884Z,61.98
2023-01-28T07:16:15.208Z,61.17
2023-01-28T07:19:18.420Z,60.91
2023-01-28T07:22:21.669Z,60.63
2023-01-28T07:25:24.953Z,60.46
2023-01-28T07:28:28.151Z,60.52
2023-01-28T07:31:31.423Z,60.40
2023-01-28T07:34:37.560Z,60.48
2023-01-28T07:37:40.748Z,60.40
2023-01-28T07:40:45.596Z,60.42
2023-01-28T07:43:48.828Z,60.40
2023-01-28T07:46:52.432Z,60.24
2023-01-28T07:49:55.733Z,60.16
2023-01-28T07:52:59.331Z,60.27
2023-01-28T07:56:03.192Z,60.25
2023-01-28T07:59:06.472Z,60.17
2023-01-28T08:02:12.383Z,60.10
2023-01-28T08:05:19.976Z,60.12
2023-01-28T08:08:25.517Z,60.14
2023-01-28T08:11:28.736Z,60.13
2023-01-28T08:14:31.921Z,60.08
2023-01-28T08:17:35.130Z,60.09
2023-01-28T08:20:38.317Z,59.90
2023-01-28T08:23:41.573Z,59.86
2023-01-28T08:26:46.346Z,59.81
2023-01-28T08:29:49.605Z,59.87
2023-01-28T08:32:57.311Z,59.76
2023-01-28T08:36:04.193Z,59.57
2023-01-28T08:39:07.391Z,59.80
2023-01-28T08:42:10.598Z,59.69
2023-01-28T08:45:14.562Z,59.79
2023-01-28T08:48:19.354Z,59.75
2023-01-28T08:51:22.705Z,59.69
2023-01-28T08:54:25.950Z,59.71
2023-01-28T08:57:29.521Z,59.63
2023-01-28T09:00:34.301Z,59.67
2023-01-28T09:03:37.594Z,59.70
2023-01-28T09:06:40.846Z,59.69
2023-01-28T09:09:44.083Z,59.48
2023-01-28T09:12:47.295Z,59.48
2023-01-28T09:15:51.377Z,59.57
2023-01-28T09:18:54.648Z,59.46
2023-01-28T09:21:57.891Z,59.45
2023-01-28T09:25:01.073Z,59.49
2023-01-28T09:28:05.034Z,59.50
2023-01-28T09:31:11.306Z,59.53
2023-01-28T09:34:14.673Z,59.50
2023-01-28T09:37:18.444Z,59.34
2023-01-28T09:40:36.124Z,59.36
2023-01-28T09:43:51.681Z,59.37
2023-01-28T09:47:02.104Z,59.42
2023-01-28T09:50:11.885Z,59.69
2023-01-28T09:53:42.287Z,60.39
2023-01-28T09:56:50.706Z,59.80
2023-01-28T09:59:54.038Z,59.67
2023-01-28T10:03:18.634Z,59.52
2023-01-28T10:06:30.926Z,59.36
2023-01-28T10:09:56.601Z,59.28
2023-01-28T10:13:39.734Z,59.19
2023-01-28T10:16:53.330Z,59.25
2023-01-28T10:20:11.808Z,59.29
2023-01-28T10:23:32.284Z,59.23
2023-01-28T10:26:40.508Z,59.22
2023-01-28T10:29:46.485Z,59.17
2023-01-28T10:33:04.326Z,59.23
2023-01-28T10:36:09.462Z,58.99
2023-01-28T10:39:18.268Z,58.97
2023-01-28T10:42:33.784Z,59.10
2023-01-28T10:45:44.792Z,59.10
2023-01-28T10:48:47.956Z,59.03
2023-01-28T10:51:51.221Z,59.23
2023-01-28T10:55:05.713Z,59.09
2023-01-28T10:58:20.576Z,59.38
2023-01-28T11:01:24.278Z,59.33
2023-01-28T11:04:30.412Z,59.17
2023-01-28T11:07:33.863Z,59.15
2023-01-28T11:10:38.519Z,59.33
2023-01-28T11:13:52.034Z,59.35
2023-01-28T11:16:58.491Z,59.20
2023-01-28T11:20:11.148Z,59.43
2023-01-28T11:23:28.413Z,59.29
2023-01-28T11:26:36.708Z,59.49
2023-01-28T11:29:42.217Z,59.25
2023-01-28T11:32:46.020Z,59.49
2023-01-28T11:35:55.057Z,59.56
2023-01-28T11:39:05.593Z,59.55
2023-01-28T11:42:17.727Z,59.56
2023-01-28T11:45:48.768Z,59.59
2023-01-28T11:49:05.079Z,59.47
2023-01-28T11:52:55.369Z,59.64
2023-01-28T11:56:19.828Z,59.43
2023-01-28T11:59:38.396Z,59.41
2023-01-28T12:02:51.176Z,59.54
2023-01-28T12:06:13.055Z,59.55
2023-01-28T12:09:30.510Z,59.43
2023-01-28T12:12:51.644Z,59.50
2023-01-28T12:16:26.610Z,59.53
2023-01-28T12:19:30.074Z,59.49
2023-01-28T12:22:45.645Z,59.52
2023-01-28T12:25:56.405Z,59.50
2023-01-28T12:29:20.705Z,59.46
2023-01-28T12:32:49.681Z,59.56
2023-01-28T12:36:07.133Z,59.56
2023-01-28T12:39:34.022Z,59.40
2023-01-28T12:42:47.933Z,59.60
2023-01-28T12:46:16.205Z,59.77
2023-01-28T12:49:52.148Z,59.84
2023-01-28T12:53:05.067Z,59.94
2023-01-28T12:56:11.221Z,59.98
2023-01-28T12:59:21.176Z,60.01
2023-01-28T13:02:33.457Z,59.99
2023-01-28T13:05:44.477Z,59.93
2023-01-28T13:08:49.608Z,59.84
2023-01-28T13:11:57.161Z,59.97
2023-01-28T13:15:01.038Z,59.99
2023-01-28T13:18:06.087Z,60.05
2023-01-28T13:21:24.237Z,60.00
2023-01-28T13:24:32.915Z,59.94
2023-01-28T13:27:36.229Z,60.06
2023-01-28T13:30:53.575Z,60.09
2023-01-28T13:33:56.811Z,60.04
2023-01-28T13:37:05.922Z,59.99
2023-01-28T13:40:15.237Z,60.16
2023-01-28T13:43:48.101Z,60.14
2023-01-28T13:46:53.138Z,60.14
2023-01-28T13:50:03.979Z,60.09
2023-01-28T13:53:35.690Z,60.21
2023-01-28T13:56:52.584Z,60.32
2023-01-28T14:00:07.516Z,60.39
2023-01-28T14:03:24.286Z,60.36
2023-01-28T14:06:30.385Z,60.58
2023-01-28T14:10:16.812Z,60.67
2023-01-28T14:13:26.187Z,60.67
2023-01-28T14:16:38.149Z,60.75
2023-01-28T14:19:44.689Z,60.90
2023-01-28T14:22:48.954Z,60.92
2023-01-28T14:25:55.207Z,60.93
2023-01-28T14:29:10.039Z,61.00
2023-01-28T14:32:17.180Z,60.97
2023-01-28T14:35:29.585Z,61.07
2023-01-28T14:38:37.914Z,61.12
2023-01-28T14:41:44.828Z,61.11
2023-01-28T14:44:55.898Z,61.16
2023-01-28T14:48:25.338Z,61.22
2023-01-28T14:51:54.835Z,61.33
2023-01-28T14:55:23.482Z,61.34
2023-01-28T14:58:52.088Z,61.45
2023-01-28T15:01:58.184Z,61.68
2023-01-28T15:05:10.859Z,61.81
2023-01-28T15:08:24.229Z,61.89
2023-01-28T15:11:27.485Z,62.06
2023-01-28T15:14:32.724Z,62.12
2023-01-28T15:17:36.007Z,62.22
2023-01-28T15:20:39.542Z,62.21
2023-01-28T15:23:43.582Z,62.36
2023-01-28T15:26:47.991Z,62.49
2023-01-28T15:29:54.508Z,62.61
2023-01-28T15:33:06.998Z,62.77
2023-01-28T15:36:10.490Z,62.90
2023-01-28T15:39:21.873Z,63.16
2023-01-28T15:42:29.451Z,63.24
2023-01-28T15:45:32.720Z,63.24
2023-01-28T15:48:36.770Z,63.40
2023-01-28T15:51:40.008Z,63.53
2023-01-28T15:54:49.825Z,63.64
2023-01-28T15:57:55.586Z,63.72
2023-01-28T16:01:15.084Z,63.67
2023-01-28T16:04:26.992Z,63.82
2023-01-28T16:07:34.118Z,64.03
2023-01-28T16:10:38.337Z,64.09
2023-01-28T16:13:44.024Z,64.06
2023-01-28T16:16:48.603Z,64.14
2023-01-28T16:19:58.667Z,64.19
2023-01-28T16:23:04.123Z,64.27
2023-01-28T16:26:24.068Z,64.48
2023-01-28T16:29:30.820Z,64.40
2023-01-28T16:32:39.277Z,64.54
2023-01-28T16:36:03.528Z,64.65
2023-01-28T16:39:05.893Z,64.88
2023-01-28T16:42:09.485Z,64.98
2023-01-28T16:45:21.589Z,65.15
2023-01-28T16:48:25.056Z,65.20
2023-01-28T16:51:28.439Z,65.32
2023-01-28T16:54:33.905Z,65.41
2023-01-28T16:57:37.271Z,65.51
2023-01-28T17:00:40.582Z,65.62
2023-01-28T17:03:44.000Z,65.75
2023-01-28T17:06:47.405Z,65.88
2023-01-28T17:09:50.642Z,65.91
2023-01-28T17:12:54.501Z,65.98
2023-01-28T17:19:19.533Z,66.26
2023-01-28T17:22:22.716Z,66.27
2023-01-28T17:25:25.984Z,66.32
2023-01-28T17:28:29.165Z,66.45
2023-01-28T17:31:32.629Z,66.52
2023-01-28T17:34:35.875Z,66.71
2023-01-28T17:37:39.088Z,66.64
2023-01-28T17:40:42.622Z,66.86
2023-01-28T17:43:53.404Z,66.90
2023-01-28T17:46:56.684Z,67.01
2023-01-28T17:50:00.014Z,67.15
2023-01-28T17:53:03.372Z,67.13
2023-01-28T17:56:06.920Z,67.22
2023-01-28T17:59:10.236Z,67.31
2023-01-28T18:02:14.701Z,67.24
2023-01-28T18:05:18.603Z,67.20
2023-01-28T18:08:21.821Z,67.21
2023-01-28T18:11:25.093Z,67.23
2023-01-28T18:14:28.486Z,67.26
2023-01-28T18:17:31.746Z,67.32
2023-01-28T18:20:35.068Z,67.42
2023-01-28T18:23:38.233Z,67.43
2023-01-28T18:26:41.649Z,67.33
2023-01-28T18:29:44.883Z,67.60
2023-01-28T18:32:48.243Z,67.68
2023-01-28T18:35:51.412Z,67.82
2023-01-28T18:38:54.730Z,67.64
2023-01-28T18:41:58.899Z,67.74
2023-01-28T18:45:02.209Z,67.68
2023-01-28T18:48:05.552Z,67.80
2023-01-28T18:51:27.735Z,67.71
2023-01-28T18:54:32.486Z,67.78
2023-01-28T18:57:35.744Z,67.90
2023-01-28T19:00:39.240Z,67.92
2023-01-28T19:03:42.477Z,67.90
2023-01-28T19:06:46.763Z,67.94
2023-01-28T19:09:50.052Z,67.74
2023-01-28T19:12:53.290Z,67.81
2023-01-28T19:15:56.889Z,67.84
2023-01-28T19:19:01.560Z,67.84
2023-01-28T19:22:04.844Z,68.05
2023-01-28T19:25:08.752Z,67.95
2023-01-28T19:28:11.978Z,67.95
2023-01-28T19:31:15.566Z,68.04
2023-01-28T19:34:18.987Z,68.11
2023-01-28T19:37:22.837Z,68.06
2023-01-28T19:40:26.051Z,68.11
2023-01-28T19:43:29.353Z,68.10
2023-01-28T19:46:33.970Z,68.02
2023-01-28T19:49:37.487Z,68.07
2023-01-28T19:52:40.773Z,68.06
2023-01-28T19:55:44.320Z,68.16
2023-01-28T19:58:47.938Z,68.14
2023-01-28T20:01:51.248Z,68.18
2023-01-28T20:05:00.687Z,68.29
2023-01-28T20:08:05.543Z,68.12
2023-01-28T20:11:12.208Z,68.27
2023-01-28T20:14:16.169Z,68.28
2023-01-28T20:17:20.601Z,68.21
2023-01-28T20:20:23.786Z,68.25
2023-01-28T20:23:27.806Z,68.12
2023-01-28T20:26:33.665Z,68.19
2023-01-28T20:29:36.992Z,68.10
2023-01-28T20:32:40.166Z,68.01
2023-01-28T20:35:44.857Z,68.19
2023-01-28T20:38:48.964Z,68.24
2023-01-28T20:41:52.184Z,67.99
2023-01-28T20:44:55.400Z,68.04
2023-01-28T20:47:58.760Z,68.13
2023-01-28T20:51:16.609Z,68.18
2023-01-28T20:54:21.123Z,68.14
2023-01-28T20:57:24.347Z,68.13
2023-01-28T21:00:27.521Z,68.05
2023-01-28T21:03:30.821Z,67.92
2023-01-28T21:06:36.453Z,68.03
2023-01-28T21:09:40.113Z,67.98
2023-01-28T21:12:43.304Z,68.05
2023-01-28T21:15:54.630Z,67.78
2023-01-28T21:18:57.879Z,67.79
2023-01-28T21:22:01.417Z,67.83
2023-01-28T21:25:05.659Z,67.90
2023-01-28T21:28:12.363Z,67.70
2023-01-28T21:31:18.128Z,67.62
2023-01-28T21:34:21.290Z,67.76
2023-01-28T21:37:26.043Z,67.73
2023-01-28T21:40:29.322Z,67.60
2023-01-28T21:43:33.421Z,67.50
2023-01-28T21:46:36.813Z,67.64
2023-01-28T21:49:40.153Z,67.70
2023-01-28T21:52:43.449Z,67.75
2023-01-28T21:55:49.159Z,67.73
2023-01-28T21:59:11.374Z,67.75
2023-01-28T22:02:15.305Z,67.72
2023-01-28T22:05:18.593Z,67.67
2023-01-28T22:08:22.313Z,67.64
2023-01-28T22:11:25.644Z,67.41
2023-01-28T22:14:29.291Z,67.41
2023-01-28T22:17:32.470Z,67.25
2023-01-28T22:20:35.693Z,67.15
2023-01-28T22:23:39.643Z,67.12
2023-01-28T22:26:44.047Z,67.11
2023-01-28T22:29:47.325Z,66.95
2023-01-28T22:32:50.630Z,66.91
2023-01-28T22:35:53.838Z,67.19
2023-01-28T22:38:57.119Z,66.91
2023-01-28T22:42:00.393Z,66.93
2023-01-28T22:45:04.023Z,66.92
2023-01-28T22:48:07.369Z,66.85
2023-01-28T22:51:19.311Z,66.85
2023-01-28T22:54:22.536Z,66.56
2023-01-28T22:57:25.767Z,66.65
2023-01-28T23:00:29.087Z,66.69
2023-01-28T23:03:33.068Z,66.79
2023-01-28T23:06:37.360Z,66.90
2023-01-28T23:09:40.613Z,66.76
2023-01-28T23:12:45.931Z,66.75
2023-01-28T23:16:09.174Z,66.51
2023-01-28T23:19:30.879Z,66.39
2023-01-28T23:22:53.082Z,66.51
2023-01-28T23:25:56.294Z,66.54
2023-01-28T23:29:00.244Z,66.29
2023-01-28T23:32:07.206Z,66.35
2023-01-28T23:35:12.305Z,66.23
2023-01-28T23:38:15.635Z,66.20
2023-01-28T23:41:18.912Z,66.10
2023-01-28T23:44:26.308Z,65.89
2023-01-28T23:47:29.720Z,66.01
2023-01-28T23:50:33.080Z,66.30
2023-01-28T23:53:36.310Z,66.32
2023-01-28T23:56:39.761Z,66.05
2023-01-28T23:59:43.180Z,66.05
